sensor_id;sensor_type;location;lat;lon;timestamp;P1;durP1;ratioP1;P2;durP2;ratioP2
55346;SDS011;41218;55.700;38.270;2024-03-23T00:53:12;36.10;;;14.57;;
55346;SDS011;41218;55.700;38.270;2024-03-23T00:58:32;34.13;;;13.63;;
55346;SDS011;41218;55.700;38.270;2024-03-23T01:03:48;38.75;;;14.70;;
55346;SDS011;41218;55.700;38.270;2024-03-23T01:08:53;39.00;;;13.55;;
55346;SDS011;41218;55.700;38.270;2024-03-23T01:13:59;36.35;;;13.65;;
55346;SDS011;41218;55.700;38.270;2024-03-23T01:19:02;40.90;;;14.88;;
55346;SDS011;41218;55.700;38.270;2024-03-23T01:24:11;36.10;;;13.68;;
55346;SDS011;41218;55.700;38.270;2024-03-23T01:29:19;38.72;;;13.80;;
55346;SDS011;41218;55.700;38.270;2024-03-23T01:34:39;40.00;;;14.30;;
55346;SDS011;41218;55.700;38.270;2024-03-23T01:39:50;32.65;;;13.65;;
55346;SDS011;41218;55.700;38.270;2024-03-23T01:45:02;32.58;;;12.88;;
55346;SDS011;41218;55.700;38.270;2024-03-23T01:50:21;36.08;;;14.10;;
55346;SDS011;41218;55.700;38.270;2024-03-23T01:55:40;37.20;;;14.00;;
55346;SDS011;41218;55.700;38.270;2024-03-23T02:00:54;36.92;;;12.82;;
55346;SDS011;41218;55.700;38.270;2024-03-23T02:06:17;33.13;;;13.13;;
55346;SDS011;41218;55.700;38.270;2024-03-23T02:11:22;34.20;;;12.88;;
55346;SDS011;41218;55.700;38.270;2024-03-23T02:16:33;38.05;;;14.45;;
55346;SDS011;41218;55.700;38.270;2024-03-23T02:21:34;35.42;;;12.48;;
55346;SDS011;41218;55.700;38.270;2024-03-23T02:26:35;42.38;;;13.43;;
55346;SDS011;41218;55.700;38.270;2024-03-23T02:31:58;32.47;;;12.25;;
55346;SDS011;41218;55.700;38.270;2024-03-23T02:37:19;33.90;;;13.52;;
55346;SDS011;41218;55.700;38.270;2024-03-23T02:42:35;33.88;;;13.05;;
55346;SDS011;41218;55.700;38.270;2024-03-23T02:47:43;36.53;;;13.57;;
55346;SDS011;41218;55.700;38.270;2024-03-23T02:52:55;38.72;;;13.98;;
55346;SDS011;41218;55.700;38.270;2024-03-23T02:57:56;35.28;;;13.27;;
55346;SDS011;41218;55.700;38.270;2024-03-23T03:03:01;37.60;;;14.20;;
55346;SDS011;41218;55.700;38.270;2024-03-23T03:08:06;35.45;;;13.90;;
55346;SDS011;41218;55.700;38.270;2024-03-23T03:13:20;32.85;;;12.82;;
55346;SDS011;41218;55.700;38.270;2024-03-23T03:18:51;38.95;;;13.95;;
55346;SDS011;41218;55.700;38.270;2024-03-23T03:24:21;31.00;;;12.60;;
55346;SDS011;41218;55.700;38.270;2024-03-23T03:29:34;42.58;;;13.50;;
55346;SDS011;41218;55.700;38.270;2024-03-23T03:34:40;33.92;;;13.45;;
55346;SDS011;41218;55.700;38.270;2024-03-23T03:39:52;38.67;;;13.73;;
55346;SDS011;41218;55.700;38.270;2024-03-23T03:45:10;36.72;;;13.88;;
55346;SDS011;41218;55.700;38.270;2024-03-23T03:50:11;33.53;;;13.10;;
55346;SDS011;41218;55.700;38.270;2024-03-23T03:55:16;41.63;;;13.60;;
55346;SDS011;41218;55.700;38.270;2024-03-23T04:00:28;32.97;;;12.18;;
55346;SDS011;41218;55.700;38.270;2024-03-23T04:05:40;32.60;;;13.13;;
55346;SDS011;41218;55.700;38.270;2024-03-23T04:10:53;33.47;;;12.57;;
55346;SDS011;41218;55.700;38.270;2024-03-23T04:16:04;34.40;;;12.63;;
55346;SDS011;41218;55.700;38.270;2024-03-23T04:21:19;33.78;;;13.20;;
55346;SDS011;41218;55.700;38.270;2024-03-23T04:26:43;40.92;;;13.57;;
55346;SDS011;41218;55.700;38.270;2024-03-23T04:31:44;36.75;;;12.65;;
55346;SDS011;41218;55.700;38.270;2024-03-23T04:36:47;31.65;;;12.48;;
55346;SDS011;41218;55.700;38.270;2024-03-23T04:42:02;31.13;;;11.90;;
55346;SDS011;41218;55.700;38.270;2024-03-23T04:47:08;29.25;;;12.07;;
55346;SDS011;41218;55.700;38.270;2024-03-23T04:52:17;31.73;;;12.90;;
55346;SDS011;41218;55.700;38.270;2024-03-23T04:57:42;34.17;;;11.97;;
55346;SDS011;41218;55.700;38.270;2024-03-23T05:03:31;31.70;;;12.07;;
55346;SDS011;41218;55.700;38.270;2024-03-23T05:08:35;32.22;;;12.25;;
55346;SDS011;41218;55.700;38.270;2024-03-23T05:13:54;35.63;;;13.02;;
55346;SDS011;41218;55.700;38.270;2024-03-23T05:19:07;30.77;;;12.55;;
55346;SDS011;41218;55.700;38.270;2024-03-23T05:24:26;28.85;;;11.30;;
55346;SDS011;41218;55.700;38.270;2024-03-23T05:29:34;32.97;;;12.65;;
55346;SDS011;41218;55.700;38.270;2024-03-23T05:34:39;30.10;;;12.63;;
55346;SDS011;41218;55.700;38.270;2024-03-23T05:39:53;25.48;;;11.98;;
55346;SDS011;41218;55.700;38.270;2024-03-23T05:45:04;26.75;;;11.45;;
55346;SDS011;41218;55.700;38.270;2024-03-23T05:50:20;26.60;;;11.02;;
55346;SDS011;41218;55.700;38.270;2024-03-23T05:55:26;27.45;;;11.23;;
55346;SDS011;41218;55.700;38.270;2024-03-23T06:00:46;32.33;;;11.10;;
55346;SDS011;41218;55.700;38.270;2024-03-23T06:05:59;30.08;;;11.38;;
55346;SDS011;41218;55.700;38.270;2024-03-23T06:11:15;31.05;;;11.65;;
55346;SDS011;41218;55.700;38.270;2024-03-23T06:16:20;29.90;;;12.13;;
55346;SDS011;41218;55.700;38.270;2024-03-23T06:21:44;29.83;;;12.48;;
55346;SDS011;41218;55.700;38.270;2024-03-23T06:26:53;29.48;;;12.50;;
55346;SDS011;41218;55.700;38.270;2024-03-23T06:31:54;27.98;;;11.60;;
55346;SDS011;41218;55.700;38.270;2024-03-23T06:37:08;29.88;;;11.77;;
55346;SDS011;41218;55.700;38.270;2024-03-23T06:42:25;28.33;;;11.82;;
55346;SDS011;41218;55.700;38.270;2024-03-23T06:47:28;33.03;;;12.68;;
55346;SDS011;41218;55.700;38.270;2024-03-23T06:53:00;33.03;;;12.30;;
55346;SDS011;41218;55.700;38.270;2024-03-23T06:58:11;32.05;;;12.43;;
55346;SDS011;41218;55.700;38.270;2024-03-23T07:03:14;28.17;;;11.82;;
55346;SDS011;41218;55.700;38.270;2024-03-23T07:09:12;31.40;;;12.75;;
55346;SDS011;41218;55.700;38.270;2024-03-23T07:14:26;29.92;;;11.90;;
55346;SDS011;41218;55.700;38.270;2024-03-23T07:19:26;33.07;;;12.10;;
55346;SDS011;41218;55.700;38.270;2024-03-23T07:24:32;25.25;;;11.45;;
55346;SDS011;41218;55.700;38.270;2024-03-23T07:29:49;26.40;;;11.80;;
55346;SDS011;41218;55.700;38.270;2024-03-23T07:35:00;29.45;;;12.75;;
55346;SDS011;41218;55.700;38.270;2024-03-23T07:40:16;30.85;;;12.48;;
55346;SDS011;41218;55.700;38.270;2024-03-23T07:45:30;28.95;;;11.23;;
55346;SDS011;41218;55.700;38.270;2024-03-23T07:50:35;25.30;;;11.68;;
55346;SDS011;41218;55.700;38.270;2024-03-23T07:55:52;26.23;;;11.27;;
55346;SDS011;41218;55.700;38.270;2024-03-23T08:01:09;27.73;;;11.32;;
55346;SDS011;41218;55.700;38.270;2024-03-23T08:06:15;27.70;;;11.25;;
55346;SDS011;41218;55.700;38.270;2024-03-23T08:11:28;28.52;;;11.93;;
55346;SDS011;41218;55.700;38.270;2024-03-23T08:16:37;27.83;;;12.18;;
55346;SDS011;41218;55.700;38.270;2024-03-23T08:21:51;29.25;;;11.73;;
55346;SDS011;41218;55.700;38.270;2024-03-23T08:27:04;23.73;;;10.93;;
55346;SDS011;41218;55.700;38.270;2024-03-23T08:32:17;23.90;;;11.18;;
55346;SDS011;41218;55.700;38.270;2024-03-23T08:37:19;24.42;;;11.90;;
55346;SDS011;41218;55.700;38.270;2024-03-23T08:48:16;25.33;;;11.43;;
55346;SDS011;41218;55.700;38.270;2024-03-23T08:53:19;28.05;;;12.05;;
55346;SDS011;41218;55.700;38.270;2024-03-23T08:58:40;26.92;;;11.43;;
55346;SDS011;41218;55.700;38.270;2024-03-23T09:04:03;24.45;;;11.15;;
55346;SDS011;41218;55.700;38.270;2024-03-23T09:09:12;22.40;;;10.90;;
55346;SDS011;41218;55.700;38.270;2024-03-23T09:15:01;26.15;;;10.40;;
55346;SDS011;41218;55.700;38.270;2024-03-23T09:20:15;23.55;;;10.70;;
55346;SDS011;41218;55.700;38.270;2024-03-23T09:25:18;22.40;;;9.90;;
55346;SDS011;41218;55.700;38.270;2024-03-23T09:30:32;22.90;;;10.68;;
55346;SDS011;41218;55.700;38.270;2024-03-23T09:35:51;19.77;;;9.10;;
55346;SDS011;41218;55.700;38.270;2024-03-23T09:41:07;20.67;;;10.10;;
55346;SDS011;41218;55.700;38.270;2024-03-23T09:46:20;19.70;;;10.32;;
55346;SDS011;41218;55.700;38.270;2024-03-23T09:51:39;25.63;;;10.57;;
55346;SDS011;41218;55.700;38.270;2024-03-23T09:57:00;23.05;;;10.02;;
55346;SDS011;41218;55.700;38.270;2024-03-23T10:02:10;24.33;;;10.23;;
55346;SDS011;41218;55.700;38.270;2024-03-23T10:07:31;21.58;;;9.43;;
55346;SDS011;41218;55.700;38.270;2024-03-23T10:12:43;21.80;;;9.57;;
55346;SDS011;41218;55.700;38.270;2024-03-23T10:18:18;19.63;;;9.13;;
55346;SDS011;41218;55.700;38.270;2024-03-23T10:23:24;23.95;;;10.05;;
55346;SDS011;41218;55.700;38.270;2024-03-23T10:28:27;19.00;;;9.50;;
55346;SDS011;41218;55.700;38.270;2024-03-23T10:33:28;17.88;;;8.93;;
55346;SDS011;41218;55.700;38.270;2024-03-23T10:38:54;23.05;;;9.98;;
55346;SDS011;41218;55.700;38.270;2024-03-23T10:44:29;18.77;;;8.68;;
55346;SDS011;41218;55.700;38.270;2024-03-23T10:49:34;16.85;;;9.10;;
55346;SDS011;41218;55.700;38.270;2024-03-23T10:54:55;19.27;;;8.63;;
55346;SDS011;41218;55.700;38.270;2024-03-23T11:00:01;16.10;;;8.40;;
55346;SDS011;41218;55.700;38.270;2024-03-23T11:10:51;19.88;;;9.02;;
55346;SDS011;41218;55.700;38.270;2024-03-23T11:16:12;18.50;;;8.25;;
55346;SDS011;41218;55.700;38.270;2024-03-23T11:21:53;17.83;;;8.55;;
55346;SDS011;41218;55.700;38.270;2024-03-23T11:27:24;18.05;;;8.93;;
55346;SDS011;41218;55.700;38.270;2024-03-23T11:32:47;16.35;;;8.05;;
55346;SDS011;41218;55.700;38.270;2024-03-23T11:38:16;16.67;;;8.18;;
55346;SDS011;41218;55.700;38.270;2024-03-23T11:43:23;18.23;;;8.60;;
55346;SDS011;41218;55.700;38.270;2024-03-23T11:48:27;22.60;;;8.10;;
55346;SDS011;41218;55.700;38.270;2024-03-23T11:53:51;19.67;;;8.95;;
55346;SDS011;41218;55.700;38.270;2024-03-23T11:59:29;18.77;;;9.63;;
55346;SDS011;41218;55.700;38.270;2024-03-23T12:04:52;18.10;;;8.43;;
55346;SDS011;41218;55.700;38.270;2024-03-23T12:15:25;20.08;;;9.15;;
55346;SDS011;41218;55.700;38.270;2024-03-23T12:21:05;16.58;;;8.85;;
55346;SDS011;41218;55.700;38.270;2024-03-23T12:26:10;19.83;;;8.82;;
55346;SDS011;41218;55.700;38.270;2024-03-23T12:31:13;20.52;;;8.60;;
55346;SDS011;41218;55.700;38.270;2024-03-23T12:36:19;21.85;;;9.35;;
55346;SDS011;41218;55.700;38.270;2024-03-23T12:41:39;21.10;;;9.23;;
55346;SDS011;41218;55.700;38.270;2024-03-23T12:46:51;21.25;;;9.23;;
55346;SDS011;41218;55.700;38.270;2024-03-23T12:52:12;20.77;;;9.88;;
55346;SDS011;41218;55.700;38.270;2024-03-23T12:57:31;21.92;;;9.45;;
55346;SDS011;41218;55.700;38.270;2024-03-23T13:08:23;20.40;;;9.48;;
55346;SDS011;41218;55.700;38.270;2024-03-23T13:13:59;22.45;;;9.57;;
55346;SDS011;41218;55.700;38.270;2024-03-23T13:19:19;21.75;;;10.63;;
55346;SDS011;41218;55.700;38.270;2024-03-23T13:24:50;25.08;;;10.43;;
55346;SDS011;41218;55.700;38.270;2024-03-23T13:30:13;28.03;;;11.33;;
55346;SDS011;41218;55.700;38.270;2024-03-23T13:41:33;23.80;;;10.75;;
55346;SDS011;41218;55.700;38.270;2024-03-23T13:46:37;28.05;;;11.63;;
55346;SDS011;41218;55.700;38.270;2024-03-23T13:51:51;26.88;;;10.45;;
55346;SDS011;41218;55.700;38.270;2024-03-23T13:57:08;24.60;;;11.20;;
55346;SDS011;41218;55.700;38.270;2024-03-23T14:02:16;24.35;;;10.90;;
55346;SDS011;41218;55.700;38.270;2024-03-23T14:07:54;23.15;;;10.60;;
55346;SDS011;41218;55.700;38.270;2024-03-23T14:13:02;29.50;;;11.90;;
55346;SDS011;41218;55.700;38.270;2024-03-23T14:18:09;27.42;;;11.15;;
55346;SDS011;41218;55.700;38.270;2024-03-23T14:23:28;28.63;;;12.18;;
55346;SDS011;41218;55.700;38.270;2024-03-23T14:29:06;25.48;;;11.55;;
55346;SDS011;41218;55.700;38.270;2024-03-23T14:34:19;33.42;;;14.05;;
55346;SDS011;41218;55.700;38.270;2024-03-23T14:39:33;41.45;;;15.23;;
55346;SDS011;41218;55.700;38.270;2024-03-23T14:44:49;43.10;;;16.30;;
55346;SDS011;41218;55.700;38.270;2024-03-23T14:50:08;38.90;;;15.27;;
55346;SDS011;41218;55.700;38.270;2024-03-23T14:55:24;41.42;;;15.93;;
55346;SDS011;41218;55.700;38.270;2024-03-23T15:00:45;30.20;;;12.85;;
55346;SDS011;41218;55.700;38.270;2024-03-23T15:06:21;36.30;;;14.10;;
55346;SDS011;41218;55.700;38.270;2024-03-23T15:11:37;32.33;;;13.52;;
55346;SDS011;41218;55.700;38.270;2024-03-23T15:16:50;30.80;;;12.80;;
55346;SDS011;41218;55.700;38.270;2024-03-23T15:22:10;28.63;;;12.63;;
55346;SDS011;41218;55.700;38.270;2024-03-23T15:33:12;34.80;;;14.63;;
55346;SDS011;41218;55.700;38.270;2024-03-23T15:38:28;32.97;;;13.45;;
55346;SDS011;41218;55.700;38.270;2024-03-23T15:43:46;32.95;;;13.15;;
55346;SDS011;41218;55.700;38.270;2024-03-23T15:49:47;25.95;;;12.77;;
55346;SDS011;41218;55.700;38.270;2024-03-23T15:55:01;28.63;;;12.23;;
55346;SDS011;41218;55.700;38.270;2024-03-23T16:00:17;27.10;;;11.35;;
55346;SDS011;41218;55.700;38.270;2024-03-23T16:11:45;29.90;;;11.95;;
55346;SDS011;41218;55.700;38.270;2024-03-23T16:17:15;27.75;;;11.75;;
55346;SDS011;41218;55.700;38.270;2024-03-23T16:22:31;24.52;;;10.75;;
55346;SDS011;41218;55.700;38.270;2024-03-23T16:27:49;28.90;;;12.13;;
55346;SDS011;41218;55.700;38.270;2024-03-23T16:33:20;31.80;;;12.38;;
55346;SDS011;41218;55.700;38.270;2024-03-23T16:38:31;27.15;;;11.63;;
55346;SDS011;41218;55.700;38.270;2024-03-23T16:43:40;26.98;;;11.80;;
55346;SDS011;41218;55.700;38.270;2024-03-23T16:48:58;25.67;;;10.75;;
55346;SDS011;41218;55.700;38.270;2024-03-23T16:54:32;23.95;;;10.38;;
55346;SDS011;41218;55.700;38.270;2024-03-23T16:59:55;22.63;;;10.40;;
55346;SDS011;41218;55.700;38.270;2024-03-23T17:11:39;24.67;;;10.98;;
55346;SDS011;41218;55.700;38.270;2024-03-23T17:22:39;25.23;;;11.05;;
55346;SDS011;41218;55.700;38.270;2024-03-23T17:27:53;26.23;;;11.02;;
55346;SDS011;41218;55.700;38.270;2024-03-23T17:33:01;26.20;;;10.73;;
55346;SDS011;41218;55.700;38.270;2024-03-23T17:38:34;24.95;;;10.63;;
55346;SDS011;41218;55.700;38.270;2024-03-23T17:43:49;25.10;;;11.00;;
55346;SDS011;41218;55.700;38.270;2024-03-23T17:49:08;26.90;;;10.98;;
55346;SDS011;41218;55.700;38.270;2024-03-23T17:54:34;24.50;;;10.90;;
55346;SDS011;41218;55.700;38.270;2024-03-23T17:59:44;28.00;;;10.70;;
55346;SDS011;41218;55.700;38.270;2024-03-23T18:04:58;22.75;;;10.27;;
55346;SDS011;41218;55.700;38.270;2024-03-23T18:10:21;23.90;;;9.75;;
55346;SDS011;41218;55.700;38.270;2024-03-23T18:15:58;22.48;;;9.65;;
55346;SDS011;41218;55.700;38.270;2024-03-23T18:21:38;20.50;;;9.45;;
55346;SDS011;41218;55.700;38.270;2024-03-23T18:27:00;19.17;;;9.35;;
55346;SDS011;41218;55.700;38.270;2024-03-23T18:32:27;22.20;;;9.48;;
55346;SDS011;41218;55.700;38.270;2024-03-23T18:38:00;22.20;;;9.77;;
55346;SDS011;41218;55.700;38.270;2024-03-23T18:43:01;22.38;;;9.40;;
55346;SDS011;41218;55.700;38.270;2024-03-23T18:48:02;22.80;;;9.30;;
55346;SDS011;41218;55.700;38.270;2024-03-23T18:53:03;20.58;;;9.25;;
55346;SDS011;41218;55.700;38.270;2024-03-23T18:58:03;24.02;;;9.63;;
55346;SDS011;41218;55.700;38.270;2024-03-23T19:03:04;20.17;;;8.93;;
55346;SDS011;41218;55.700;38.270;2024-03-23T19:08:06;20.17;;;8.90;;
55346;SDS011;41218;55.700;38.270;2024-03-23T19:13:07;21.58;;;8.40;;
55346;SDS011;41218;55.700;38.270;2024-03-23T19:18:07;18.67;;;8.67;;
55346;SDS011;41218;55.700;38.270;2024-03-23T19:23:08;16.23;;;7.95;;
55346;SDS011;41218;55.700;38.270;2024-03-23T19:28:09;15.07;;;7.05;;
55346;SDS011;41218;55.700;38.270;2024-03-23T19:33:10;16.87;;;7.97;;
55346;SDS011;41218;55.700;38.270;2024-03-23T19:38:11;15.83;;;7.47;;
55346;SDS011;41218;55.700;38.270;2024-03-23T19:43:11;15.10;;;6.90;;
55346;SDS011;41218;55.700;38.270;2024-03-23T19:48:12;16.23;;;7.27;;
55346;SDS011;41218;55.700;38.270;2024-03-23T19:53:12;17.13;;;7.23;;
55346;SDS011;41218;55.700;38.270;2024-03-23T19:58:13;16.50;;;7.53;;
55346;SDS011;41218;55.700;38.270;2024-03-23T20:03:14;14.20;;;6.43;;
55346;SDS011;41218;55.700;38.270;2024-03-23T20:13:16;14.70;;;6.70;;
55346;SDS011;41218;55.700;38.270;2024-03-23T20:18:16;16.03;;;7.63;;
55346;SDS011;41218;55.700;38.270;2024-03-23T20:23:17;15.70;;;6.67;;
55346;SDS011;41218;55.700;38.270;2024-03-23T20:28:17;18.10;;;7.47;;
55346;SDS011;41218;55.700;38.270;2024-03-23T20:38:20;22.20;;;8.90;;
55346;SDS011;41218;55.700;38.270;2024-03-23T20:43:21;20.58;;;9.02;;
55346;SDS011;41218;55.700;38.270;2024-03-23T20:48:24;22.17;;;8.98;;
55346;SDS011;41218;55.700;38.270;2024-03-23T20:53:28;19.27;;;8.90;;
55346;SDS011;41218;55.700;38.270;2024-03-23T20:58:31;22.00;;;9.50;;
55346;SDS011;41218;55.700;38.270;2024-03-23T21:03:32;23.50;;;9.38;;
55346;SDS011;41218;55.700;38.270;2024-03-23T21:08:33;22.02;;;9.45;;
55346;SDS011;41218;55.700;38.270;2024-03-23T21:13:34;22.38;;;9.70;;
55346;SDS011;41218;55.700;38.270;2024-03-23T21:18:35;22.10;;;9.53;;
55346;SDS011;41218;55.700;38.270;2024-03-23T21:23:36;23.80;;;9.95;;
55346;SDS011;41218;55.700;38.270;2024-03-23T21:28:36;21.87;;;8.97;;
55346;SDS011;41218;55.700;38.270;2024-03-23T21:33:37;25.73;;;9.53;;
55346;SDS011;41218;55.700;38.270;2024-03-23T21:38:38;25.37;;;9.47;;
55346;SDS011;41218;55.700;38.270;2024-03-23T21:43:38;23.33;;;8.67;;
55346;SDS011;41218;55.700;38.270;2024-03-23T21:48:39;20.37;;;7.53;;
55346;SDS011;41218;55.700;38.270;2024-03-23T21:53:42;22.20;;;9.00;;
55346;SDS011;41218;55.700;38.270;2024-03-23T21:58:44;20.58;;;8.15;;
55346;SDS011;41218;55.700;38.270;2024-03-23T22:03:45;19.27;;;8.17;;
55346;SDS011;41218;55.700;38.270;2024-03-23T22:08:45;24.73;;;8.57;;
55346;SDS011;41218;55.700;38.270;2024-03-23T22:13:49;24.55;;;9.35;;
55346;SDS011;41218;55.700;38.270;2024-03-23T22:18:49;22.42;;;8.75;;
55346;SDS011;41218;55.700;38.270;2024-03-23T22:23:50;21.47;;;8.67;;
55346;SDS011;41218;55.700;38.270;2024-03-23T22:28:50;21.33;;;8.47;;
55346;SDS011;41218;55.700;38.270;2024-03-23T22:33:51;21.33;;;8.67;;
55346;SDS011;41218;55.700;38.270;2024-03-23T22:38:52;20.17;;;7.53;;
55346;SDS011;41218;55.700;38.270;2024-03-23T22:43:52;20.33;;;8.63;;
55346;SDS011;41218;55.700;38.270;2024-03-23T22:48:53;21.27;;;9.07;;
55346;SDS011;41218;55.700;38.270;2024-03-23T22:53:53;20.67;;;7.93;;
55346;SDS011;41218;55.700;38.270;2024-03-23T22:58:54;19.37;;;8.33;;
55346;SDS011;41218;55.700;38.270;2024-03-23T23:03:54;21.80;;;8.80;;
55346;SDS011;41218;55.700;38.270;2024-03-23T23:08:55;19.97;;;8.13;;
55346;SDS011;41218;55.700;38.270;2024-03-23T23:13:55;22.07;;;8.43;;
55346;SDS011;41218;55.700;38.270;2024-03-23T23:18:56;22.33;;;7.77;;
55346;SDS011;41218;55.700;38.270;2024-03-23T23:23:57;24.33;;;8.43;;
55346;SDS011;41218;55.700;38.270;2024-03-23T23:28:59;23.25;;;8.30;;
55346;SDS011;41218;55.700;38.270;2024-03-23T23:33:59;25.07;;;9.03;;
55346;SDS011;41218;55.700;38.270;2024-03-23T23:39:00;21.17;;;8.97;;
55346;SDS011;41218;55.700;38.270;2024-03-23T23:44:01;23.13;;;9.30;;
55346;SDS011;41218;55.700;38.270;2024-03-23T23:49:02;23.83;;;8.80;;
55346;SDS011;41218;55.700;38.270;2024-03-23T23:54:05;21.35;;;8.05;;
55346;SDS011;41218;55.700;38.270;2024-03-23T23:59:06;17.70;;;8.13;;
